MET'MAP v2.0
soon released !

Expected late october,
this new version will be
more efficient, smarter,
and hosted on a brand new
server x3 powerfull...
...and still free !


Not compatible ?
Try the mobile version !

LOG IN : | Subscribe | Disclaimer | Who is Orbifly ? |
ICAO code :

TAF - EGCC Manchester - 11 Nov 2019 20:54 UTC - Data Source NOAA   


- Airport Elevation : 257 ft
- IATA code : MAN
- No reported NOTAMs.


EGCC - Manchester

Latest METAR recorded : 2015/08/11 07:50 EGCC 110750Z VRB03KT 9999 FEW030 14/11 Q1020 NOSIG
TAF TAF EGCC
Valid from the 11 at 18:00 until the 13 at 00:00 UTC


111701Z 1118/1224 27014KT 9999 FEW010 SCT030
TEMPO 1118/1203 29020G32KT 6000 SHRA
PROB30
TEMPO 1118/1203 3000 +SHRAGS BKN010 BKN025CB
BECMG 1203/1206 28022G32KT
TEMPO 1203/1212 6000 RA BKN010
PROB30
TEMPO 1203/1212 29028G42KT 4000 +RA BKN008
BECMG 1212/1215 30012KT
PROB30
TEMPO 1215/1218 31018G28KT
BECMG 1218/1221 24006KT

Source NOAA
ATIS : +44 161 499 2324


MET'MAP, your aeronautical weather chart ! - Copyright ORBIFLY December 2007

Programming & Development : Alexandra Zaïnal
Co-Developer : Marc-Olivier Méhu
Technical & hardware support : Manuel Goepfert
Concept & Financing : Baudouin d'Aumeries